createdAt,value
2023-01-22T00:01:22.195Z,12.90
2023-01-22T00:03:49.779Z,13.30
2023-01-22T00:06:17.008Z,12.10
2023-01-22T00:08:44.431Z,15.65
2023-01-22T00:11:12.054Z,11.05
2023-01-22T00:13:39.367Z,10.95
2023-01-22T00:16:07.969Z,10.35
2023-01-22T00:18:35.516Z,10.65
2023-01-22T00:21:02.991Z,9.55
2023-01-22T00:23:31.523Z,7.18
2023-01-22T00:26:02.030Z,6.97
2023-01-22T00:28:30.064Z,8.18
2023-01-22T00:31:02.419Z,8.32
2023-01-22T00:33:30.335Z,6.38
2023-01-22T00:36:03.938Z,6.38
2023-01-22T00:38:31.580Z,4.93
2023-01-22T00:41:05.789Z,5.25
2023-01-22T00:43:34.987Z,6.20
2023-01-22T00:46:03.191Z,7.00
2023-01-22T00:48:30.743Z,5.55
2023-01-22T00:50:58.172Z,7.35
2023-01-22T00:53:25.657Z,8.88
2023-01-22T00:55:55.108Z,5.88
2023-01-22T00:58:22.396Z,7.03
2023-01-22T01:00:50.481Z,6.90
2023-01-22T01:03:20.301Z,5.07
2023-01-22T01:05:47.739Z,5.88
2023-01-22T01:08:17.853Z,11.63
2023-01-22T01:10:46.086Z,6.07
2023-01-22T01:13:13.452Z,6.35
2023-01-22T01:15:40.833Z,6.18
2023-01-22T01:18:07.968Z,5.97
2023-01-22T01:20:35.094Z,6.43
2023-01-22T01:23:02.413Z,7.22
2023-01-22T01:25:29.579Z,5.57
2023-01-22T01:27:56.822Z,5.00
2023-01-22T01:30:23.967Z,5.53
2023-01-22T01:32:51.153Z,7.10
2023-01-22T01:35:18.397Z,4.63
2023-01-22T01:37:45.555Z,6.22
2023-01-22T01:40:13.151Z,5.55
2023-01-22T01:42:42.271Z,4.75
2023-01-22T01:45:32.302Z,4.97
2023-01-22T01:48:09.762Z,6.07
2023-01-22T01:50:40.498Z,5.10
2023-01-22T01:53:08.447Z,4.63
2023-01-22T01:55:39.560Z,4.70
2023-01-22T01:58:11.656Z,5.85
2023-01-22T02:00:43.368Z,5.13
2023-01-22T02:05:39.274Z,7.30
2023-01-22T02:08:08.842Z,6.20
2023-01-22T02:10:37.330Z,6.15
2023-01-22T02:13:10.214Z,4.68
2023-01-22T02:15:39.184Z,4.75
2023-01-22T02:18:06.748Z,3.45
2023-01-22T02:20:38.640Z,15.98
2023-01-22T02:23:08.088Z,4.25
2023-01-22T02:25:35.333Z,5.15
2023-01-22T02:28:02.693Z,13.50
2023-01-22T02:30:29.935Z,10.40
2023-01-22T02:32:57.388Z,5.50
2023-01-22T02:35:25.073Z,20.50
2023-01-22T02:37:52.365Z,5.45
2023-01-22T02:40:19.936Z,3.35
2023-01-22T02:42:47.697Z,3.83
2023-01-22T02:45:15.383Z,4.90
2023-01-22T02:47:42.638Z,4.47
2023-01-22T02:50:10.215Z,3.67
2023-01-22T02:52:38.743Z,5.63
2023-01-22T02:55:06.293Z,3.63
2023-01-22T02:57:33.572Z,5.47
2023-01-22T03:00:01.875Z,5.90
2023-01-22T03:02:29.670Z,4.80
2023-01-22T03:04:57.370Z,6.03
2023-01-22T03:07:24.734Z,1.85
2023-01-22T03:09:51.797Z,3.08
2023-01-22T03:12:19.506Z,3.20
2023-01-22T03:14:46.926Z,2.15
2023-01-22T03:17:15.747Z,3.20
2023-01-22T03:19:42.983Z,2.47
2023-01-22T03:22:17.827Z,2.75
2023-01-22T03:24:46.224Z,2.55
2023-01-22T03:27:13.570Z,3.35
2023-01-22T03:29:40.781Z,2.65
2023-01-22T03:32:08.282Z,1.95
2023-01-22T03:34:38.104Z,1.98
2023-01-22T03:37:07.700Z,2.63
2023-01-22T03:39:35.911Z,2.05
2023-01-22T03:42:05.081Z,2.03
2023-01-22T20:52:13.659Z,11.38
2023-01-22T20:54:54.880Z,11.30
2023-01-22T20:57:29.157Z,11.00
2023-01-22T20:59:56.290Z,14.50
2023-01-22T21:02:23.820Z,12.55
2023-01-22T21:04:51.687Z,15.20
2023-01-22T21:07:19.826Z,11.57
2023-01-22T21:09:47.344Z,8.73
2023-01-22T21:12:14.667Z,12.23
2023-01-22T21:14:41.920Z,10.70
2023-01-22T21:17:09.292Z,11.95
2023-01-22T21:19:36.389Z,12.43
2023-01-22T21:22:03.671Z,14.00
2023-01-22T21:24:31.875Z,12.15
2023-01-22T21:26:59.275Z,12.93
2023-01-22T21:29:26.492Z,10.60
2023-01-22T21:31:53.860Z,12.57
2023-01-22T21:34:24.128Z,10.68
2023-01-22T21:36:53.477Z,13.10
2023-01-22T21:39:25.042Z,15.73
2023-01-22T21:41:52.666Z,11.95
2023-01-22T21:44:19.944Z,10.55
2023-01-22T21:46:47.833Z,10.35
2023-01-22T21:49:18.854Z,10.38
2023-01-22T21:51:53.291Z,12.85
2023-01-22T21:54:29.324Z,12.45
2023-01-22T21:56:56.961Z,11.13
2023-01-22T21:59:24.643Z,11.23
2023-01-22T22:01:51.747Z,10.95
2023-01-22T22:04:19.209Z,13.98
2023-01-22T22:06:46.752Z,12.88
2023-01-22T22:09:17.034Z,13.63
2023-01-22T22:11:44.757Z,13.98
2023-01-22T22:14:12.924Z,12.27
2023-01-22T22:16:40.043Z,15.95
2023-01-22T22:19:07.082Z,11.98
2023-01-22T22:21:36.024Z,13.63
2023-01-22T22:24:03.632Z,13.35
2023-01-22T22:26:31.151Z,12.07
2023-01-22T22:28:58.240Z,13.02
2023-01-22T22:31:25.642Z,12.30
2023-01-22T22:33:54.491Z,11.57
2023-01-22T22:36:24.252Z,12.20
2023-01-22T22:38:52.059Z,12.45
2023-01-22T22:41:27.610Z,13.10
2023-01-22T22:43:55.986Z,11.93
2023-01-22T22:46:30.249Z,10.63
2023-01-22T22:48:59.017Z,11.13
2023-01-22T22:51:35.257Z,11.40
2023-01-22T22:54:05.457Z,10.75
2023-01-22T22:56:32.553Z,12.90
2023-01-22T22:59:00.601Z,12.93
2023-01-22T23:01:28.756Z,11.98
2023-01-22T23:03:56.022Z,12.23
2023-01-22T23:06:28.041Z,11.40
2023-01-22T23:09:10.040Z,12.40
2023-01-22T23:11:37.231Z,11.95
2023-01-22T23:14:05.010Z,12.32
2023-01-22T23:16:36.092Z,10.45
2023-01-22T23:19:09.425Z,12.85
2023-01-22T23:21:36.585Z,12.75
2023-01-22T23:24:03.888Z,11.70
2023-01-22T23:26:31.200Z,15.07
2023-01-22T23:29:01.162Z,10.82
2023-01-22T23:31:30.486Z,11.05
2023-01-22T23:33:58.746Z,12.63
2023-01-22T23:36:25.928Z,14.00
2023-01-22T23:38:54.123Z,11.82
2023-01-22T23:41:21.280Z,11.77
2023-01-22T23:43:48.909Z,12.48
2023-01-22T23:46:20.627Z,13.23
2023-01-22T23:51:15.695Z,12.98
2023-01-22T23:53:45.693Z,12.27
2023-01-22T23:56:14.662Z,11.52
2023-01-22T23:58:42.345Z,12.95
